sensor_id;sensor_type;location;lat;lon;timestamp;temperature;humidity
16263;DHT22;8239;48.594;8.598;2022-12-08T00:00:55;-4.50;99.90
16263;DHT22;8239;48.594;8.598;2022-12-08T00:03:31;-4.50;99.90
16263;DHT22;8239;48.594;8.598;2022-12-08T00:05:58;-4.50;99.90
16263;DHT22;8239;48.594;8.598;2022-12-08T00:08:44;-4.50;99.90
16263;DHT22;8239;48.594;8.598;2022-12-08T00:11:29;-4.50;99.90
16263;DHT22;8239;48.594;8.598;2022-12-08T00:13:57;-4.50;99.90
16263;DHT22;8239;48.594;8.598;2022-12-08T00:16:24;-4.50;99.90
16263;DHT22;8239;48.594;8.598;2022-12-08T00:18:52;-4.50;99.90
16263;DHT22;8239;48.594;8.598;2022-12-08T00:21:19;-4.50;99.90
16263;DHT22;8239;48.594;8.598;2022-12-08T00:23:46;-4.50;99.90
16263;DHT22;8239;48.594;8.598;2022-12-08T00:26:13;-4.50;99.90
16263;DHT22;8239;48.594;8.598;2022-12-08T00:28:40;-4.50;99.90
16263;DHT22;8239;48.594;8.598;2022-12-08T00:31:10;-4.50;99.90
16263;DHT22;8239;48.594;8.598;2022-12-08T00:33:37;-4.50;99.90
16263;DHT22;8239;48.594;8.598;2022-12-08T00:36:05;-4.50;99.90
16263;DHT22;8239;48.594;8.598;2022-12-08T00:38:32;-4.50;99.90
16263;DHT22;8239;48.594;8.598;2022-12-08T00:40:59;-4.60;99.90
16263;DHT22;8239;48.594;8.598;2022-12-08T00:43:27;-4.60;99.90
16263;DHT22;8239;48.594;8.598;2022-12-08T00:45:54;-4.60;99.90
16263;DHT22;8239;48.594;8.598;2022-12-08T00:48:22;-4.60;99.90
16263;DHT22;8239;48.594;8.598;2022-12-08T00:50:49;-4.60;99.90
16263;DHT22;8239;48.594;8.598;2022-12-08T00:53:16;-4.60;99.90
16263;DHT22;8239;48.594;8.598;2022-12-08T00:55:43;-4.60;99.90
16263;DHT22;8239;48.594;8.598;2022-12-08T00:58:11;-4.70;99.90
16263;DHT22;8239;48.594;8.598;2022-12-08T01:00:39;-4.70;99.90
16263;DHT22;8239;48.594;8.598;2022-12-08T01:03:08;-4.80;99.90
16263;DHT22;8239;48.594;8.598;2022-12-08T01:05:37;-4.80;99.90
16263;DHT22;8239;48.594;8.598;2022-12-08T01:08:04;-4.80;99.90
16263;DHT22;8239;48.594;8.598;2022-12-08T01:10:34;-4.80;99.90
16263;DHT22;8239;48.594;8.598;2022-12-08T01:13:01;-4.80;99.90
16263;DHT22;8239;48.594;8.598;2022-12-08T01:15:28;-4.80;99.90
16263;DHT22;8239;48.594;8.598;2022-12-08T01:17:56;-4.80;99.90
16263;DHT22;8239;48.594;8.598;2022-12-08T01:20:23;-4.80;99.90
16263;DHT22;8239;48.594;8.598;2022-12-08T01:22:51;-4.80;99.90
16263;DHT22;8239;48.594;8.598;2022-12-08T01:25:19;-4.80;99.90
16263;DHT22;8239;48.594;8.598;2022-12-08T01:27:46;-4.80;99.90
16263;DHT22;8239;48.594;8.598;2022-12-08T01:30:13;-4.80;99.90
16263;DHT22;8239;48.594;8.598;2022-12-08T01:32:40;-4.80;99.90
16263;DHT22;8239;48.594;8.598;2022-12-08T01:35:08;-4.90;99.90
16263;DHT22;8239;48.594;8.598;2022-12-08T01:37:35;-4.90;99.90
16263;DHT22;8239;48.594;8.598;2022-12-08T01:40:05;-4.90;99.90
16263;DHT22;8239;48.594;8.598;2022-12-08T01:42:32;-4.90;99.90
16263;DHT22;8239;48.594;8.598;2022-12-08T01:45:01;-5.00;99.90
16263;DHT22;8239;48.594;8.598;2022-12-08T01:47:35;-4.90;99.90
16263;DHT22;8239;48.594;8.598;2022-12-08T01:50:06;-4.90;99.90
16263;DHT22;8239;48.594;8.598;2022-12-08T01:52:36;-4.90;99.90
16263;DHT22;8239;48.594;8.598;2022-12-08T01:55:10;-4.90;99.90
16263;DHT22;8239;48.594;8.598;2022-12-08T01:57:42;-4.90;99.90
16263;DHT22;8239;48.594;8.598;2022-12-08T02:00:12;-5.00;99.90
16263;DHT22;8239;48.594;8.598;2022-12-08T02:02:48;-5.10;99.90
16263;DHT22;8239;48.594;8.598;2022-12-08T02:05:17;-5.10;99.90
16263;DHT22;8239;48.594;8.598;2022-12-08T02:07:46;-5.20;99.90
16263;DHT22;8239;48.594;8.598;2022-12-08T02:10:17;-5.20;99.90
16263;DHT22;8239;48.594;8.598;2022-12-08T02:12:45;-5.20;99.90
16263;DHT22;8239;48.594;8.598;2022-12-08T02:15:13;-5.20;99.90
16263;DHT22;8239;48.594;8.598;2022-12-08T02:18:00;-5.20;99.90
16263;DHT22;8239;48.594;8.598;2022-12-08T02:20:38;-5.20;99.90
16263;DHT22;8239;48.594;8.598;2022-12-08T02:23:15;-5.20;99.90
16263;DHT22;8239;48.594;8.598;2022-12-08T03:00:32;-5.30;99.90
16263;DHT22;8239;48.594;8.598;2022-12-08T03:04:03;-5.30;99.90
16263;DHT22;8239;48.594;8.598;2022-12-08T03:07:06;-5.40;99.90
16263;DHT22;8239;48.594;8.598;2022-12-08T03:10:09;-5.40;99.90
16263;DHT22;8239;48.594;8.598;2022-12-08T03:43:59;-5.50;99.90
16263;DHT22;8239;48.594;8.598;2022-12-08T03:50:11;-5.50;99.90
16263;DHT22;8239;48.594;8.598;2022-12-08T03:56:27;-5.50;99.90
16263;DHT22;8239;48.594;8.598;2022-12-08T03:59:31;-5.50;99.90
16263;DHT22;8239;48.594;8.598;2022-12-08T04:02:13;-5.50;99.90
16263;DHT22;8239;48.594;8.598;2022-12-08T04:05:09;-5.60;99.90
16263;DHT22;8239;48.594;8.598;2022-12-08T04:07:50;-5.60;99.90
16263;DHT22;8239;48.594;8.598;2022-12-08T04:10:37;-5.70;99.90
16263;DHT22;8239;48.594;8.598;2022-12-08T04:13:37;-5.70;99.90
16263;DHT22;8239;48.594;8.598;2022-12-08T04:26:36;-5.70;99.90
16263;DHT22;8239;48.594;8.598;2022-12-08T04:29:04;-5.70;99.90
16263;DHT22;8239;48.594;8.598;2022-12-08T04:31:48;-5.80;99.90
16263;DHT22;8239;48.594;8.598;2022-12-08T04:34:59;-5.80;99.90
16263;DHT22;8239;48.594;8.598;2022-12-08T04:37:49;-5.70;99.90
16263;DHT22;8239;48.594;8.598;2022-12-08T04:40:49;-5.70;99.90
16263;DHT22;8239;48.594;8.598;2022-12-08T04:50:08;-5.70;99.90
16263;DHT22;8239;48.594;8.598;2022-12-08T04:52:50;-5.70;99.90
16263;DHT22;8239;48.594;8.598;2022-12-08T04:55:42;-5.70;99.90
16263;DHT22;8239;48.594;8.598;2022-12-08T04:59:00;-5.70;99.90
16263;DHT22;8239;48.594;8.598;2022-12-08T05:01:31;-5.70;99.90
16263;DHT22;8239;48.594;8.598;2022-12-08T05:04:08;-5.70;99.90
16263;DHT22;8239;48.594;8.598;2022-12-08T05:20:40;-5.70;99.90
16263;DHT22;8239;48.594;8.598;2022-12-08T05:26:48;-5.70;99.90
16263;DHT22;8239;48.594;8.598;2022-12-08T05:29:32;-5.80;99.90
16263;DHT22;8239;48.594;8.598;2022-12-08T05:34:43;-5.80;99.90
16263;DHT22;8239;48.594;8.598;2022-12-08T05:37:12;-5.80;99.90
16263;DHT22;8239;48.594;8.598;2022-12-08T05:39:39;-5.80;99.90
16263;DHT22;8239;48.594;8.598;2022-12-08T05:42:06;-5.90;99.90
16263;DHT22;8239;48.594;8.598;2022-12-08T05:44:33;-5.90;99.90
16263;DHT22;8239;48.594;8.598;2022-12-08T05:47:00;-5.90;99.90
16263;DHT22;8239;48.594;8.598;2022-12-08T05:49:27;-5.90;99.90
16263;DHT22;8239;48.594;8.598;2022-12-08T05:51:54;-5.90;99.90
16263;DHT22;8239;48.594;8.598;2022-12-08T05:54:22;-5.90;99.90
16263;DHT22;8239;48.594;8.598;2022-12-08T05:56:49;-5.80;99.90
16263;DHT22;8239;48.594;8.598;2022-12-08T05:59:16;-5.70;99.90
16263;DHT22;8239;48.594;8.598;2022-12-08T06:01:43;-5.60;99.90
16263;DHT22;8239;48.594;8.598;2022-12-08T06:04:11;-5.60;99.90
16263;DHT22;8239;48.594;8.598;2022-12-08T06:06:38;-5.60;99.90
16263;DHT22;8239;48.594;8.598;2022-12-08T06:09:05;-5.60;99.90
16263;DHT22;8239;48.594;8.598;2022-12-08T06:11:35;-5.60;99.90
16263;DHT22;8239;48.594;8.598;2022-12-08T06:14:02;-5.60;99.90
16263;DHT22;8239;48.594;8.598;2022-12-08T06:16:29;-5.70;99.90
16263;DHT22;8239;48.594;8.598;2022-12-08T06:18:57;-5.70;99.90
16263;DHT22;8239;48.594;8.598;2022-12-08T06:21:25;-5.70;99.90
16263;DHT22;8239;48.594;8.598;2022-12-08T06:23:52;-5.80;99.90
16263;DHT22;8239;48.594;8.598;2022-12-08T06:26:20;-5.80;99.90
16263;DHT22;8239;48.594;8.598;2022-12-08T06:28:49;-5.80;99.90
16263;DHT22;8239;48.594;8.598;2022-12-08T06:31:18;-5.80;99.90
16263;DHT22;8239;48.594;8.598;2022-12-08T06:33:45;-5.80;99.90
16263;DHT22;8239;48.594;8.598;2022-12-08T06:36:14;-5.90;99.90
16263;DHT22;8239;48.594;8.598;2022-12-08T06:38:42;-5.90;99.90
16263;DHT22;8239;48.594;8.598;2022-12-08T06:41:09;-6.00;99.90
16263;DHT22;8239;48.594;8.598;2022-12-08T06:43:37;-6.00;99.90
16263;DHT22;8239;48.594;8.598;2022-12-08T06:46:08;-6.00;99.90
16263;DHT22;8239;48.594;8.598;2022-12-08T06:48:36;-6.00;99.90
16263;DHT22;8239;48.594;8.598;2022-12-08T06:51:07;-6.00;99.90
16263;DHT22;8239;48.594;8.598;2022-12-08T06:53:35;-6.00;99.90
16263;DHT22;8239;48.594;8.598;2022-12-08T06:56:03;-5.90;99.90
16263;DHT22;8239;48.594;8.598;2022-12-08T06:58:30;-5.90;99.90
16263;DHT22;8239;48.594;8.598;2022-12-08T07:01:03;-5.80;99.90
16263;DHT22;8239;48.594;8.598;2022-12-08T07:03:32;-5.80;99.90
16263;DHT22;8239;48.594;8.598;2022-12-08T07:05:59;-5.70;99.90
16263;DHT22;8239;48.594;8.598;2022-12-08T07:08:26;-5.70;99.90
16263;DHT22;8239;48.594;8.598;2022-12-08T07:10:54;-5.70;99.90
16263;DHT22;8239;48.594;8.598;2022-12-08T07:13:21;-5.70;99.90
16263;DHT22;8239;48.594;8.598;2022-12-08T07:15:48;-5.70;99.90
16263;DHT22;8239;48.594;8.598;2022-12-08T07:18:15;-5.70;99.90
16263;DHT22;8239;48.594;8.598;2022-12-08T07:20:44;-5.70;99.90
16263;DHT22;8239;48.594;8.598;2022-12-08T07:23:11;-5.40;99.90
16263;DHT22;8239;48.594;8.598;2022-12-08T07:25:38;-5.10;99.90
16263;DHT22;8239;48.594;8.598;2022-12-08T07:28:09;-4.70;99.90
16263;DHT22;8239;48.594;8.598;2022-12-08T07:30:37;-4.30;99.90
16263;DHT22;8239;48.594;8.598;2022-12-08T07:33:04;-3.80;99.90
16263;DHT22;8239;48.594;8.598;2022-12-08T07:35:31;-3.10;99.90
16263;DHT22;8239;48.594;8.598;2022-12-08T07:38:00;-2.40;99.90
16263;DHT22;8239;48.594;8.598;2022-12-08T07:40:27;-1.80;99.90
16263;DHT22;8239;48.594;8.598;2022-12-08T07:42:54;-1.30;99.90
16263;DHT22;8239;48.594;8.598;2022-12-08T07:45:21;-0.60;99.90
16263;DHT22;8239;48.594;8.598;2022-12-08T07:47:49;0.00;99.90
16263;DHT22;8239;48.594;8.598;2022-12-08T07:50:16;0.80;99.90
16263;DHT22;8239;48.594;8.598;2022-12-08T07:52:43;1.60;99.90
16263;DHT22;8239;48.594;8.598;2022-12-08T07:55:11;2.30;99.90
16263;DHT22;8239;48.594;8.598;2022-12-08T07:57:39;3.00;99.90
16263;DHT22;8239;48.594;8.598;2022-12-08T08:00:07;3.50;99.90
16263;DHT22;8239;48.594;8.598;2022-12-08T08:02:34;4.00;99.90
16263;DHT22;8239;48.594;8.598;2022-12-08T08:05:01;4.50;99.90
16263;DHT22;8239;48.594;8.598;2022-12-08T08:07:29;5.10;99.90
16263;DHT22;8239;48.594;8.598;2022-12-08T08:09:57;5.80;99.90
16263;DHT22;8239;48.594;8.598;2022-12-08T08:12:25;6.60;99.90
16263;DHT22;8239;48.594;8.598;2022-12-08T08:14:52;7.40;99.90
16263;DHT22;8239;48.594;8.598;2022-12-08T08:17:19;8.10;99.90
16263;DHT22;8239;48.594;8.598;2022-12-08T08:19:46;8.70;99.90
16263;DHT22;8239;48.594;8.598;2022-12-08T08:22:13;9.40;99.90
16263;DHT22;8239;48.594;8.598;2022-12-08T08:24:41;10.00;98.40
16263;DHT22;8239;48.594;8.598;2022-12-08T08:27:08;10.60;94.90
16263;DHT22;8239;48.594;8.598;2022-12-08T08:29:36;11.30;89.20
16263;DHT22;8239;48.594;8.598;2022-12-08T08:32:03;11.90;85.20
16263;DHT22;8239;48.594;8.598;2022-12-08T08:34:30;12.40;82.60
16263;DHT22;8239;48.594;8.598;2022-12-08T08:36:58;13.10;80.30
16263;DHT22;8239;48.594;8.598;2022-12-08T08:39:25;13.60;76.80
16263;DHT22;8239;48.594;8.598;2022-12-08T08:41:54;14.10;69.00
16263;DHT22;8239;48.594;8.598;2022-12-08T08:44:21;14.50;65.20
16263;DHT22;8239;48.594;8.598;2022-12-08T08:46:50;14.80;67.80
16263;DHT22;8239;48.594;8.598;2022-12-08T08:49:17;15.30;65.30
16263;DHT22;8239;48.594;8.598;2022-12-08T08:51:45;15.80;63.80
16263;DHT22;8239;48.594;8.598;2022-12-08T08:54:12;16.40;61.90
16263;DHT22;8239;48.594;8.598;2022-12-08T08:56:39;16.90;55.90
16263;DHT22;8239;48.594;8.598;2022-12-08T08:59:06;17.20;56.70
16263;DHT22;8239;48.594;8.598;2022-12-08T09:01:33;17.50;55.20
16263;DHT22;8239;48.594;8.598;2022-12-08T09:04:01;17.60;56.20
16263;DHT22;8239;48.594;8.598;2022-12-08T09:06:28;17.80;53.50
16263;DHT22;8239;48.594;8.598;2022-12-08T09:08:55;18.10;53.00
16263;DHT22;8239;48.594;8.598;2022-12-08T09:11:22;18.40;51.80
16263;DHT22;8239;48.594;8.598;2022-12-08T09:13:50;18.60;51.50
16263;DHT22;8239;48.594;8.598;2022-12-08T09:16:18;18.90;49.90
16263;DHT22;8239;48.594;8.598;2022-12-08T09:18:45;19.00;48.50
16263;DHT22;8239;48.594;8.598;2022-12-08T09:21:16;19.20;46.60
16263;DHT22;8239;48.594;8.598;2022-12-08T09:23:47;19.40;44.90
16263;DHT22;8239;48.594;8.598;2022-12-08T09:26:14;19.70;44.70
16263;DHT22;8239;48.594;8.598;2022-12-08T09:28:41;19.90;42.60
16263;DHT22;8239;48.594;8.598;2022-12-08T09:31:11;20.10;42.50
16263;DHT22;8239;48.594;8.598;2022-12-08T09:33:38;20.20;40.50
16263;DHT22;8239;48.594;8.598;2022-12-08T09:36:06;20.30;41.00
16263;DHT22;8239;48.594;8.598;2022-12-08T09:38:35;20.40;41.70
16263;DHT22;8239;48.594;8.598;2022-12-08T09:41:04;20.70;40.10
16263;DHT22;8239;48.594;8.598;2022-12-08T09:43:49;20.80;39.30
16263;DHT22;8239;48.594;8.598;2022-12-08T09:46:21;21.00;39.10
16263;DHT22;8239;48.594;8.598;2022-12-08T09:48:51;21.10;38.00
16263;DHT22;8239;48.594;8.598;2022-12-08T09:51:22;21.20;38.60
16263;DHT22;8239;48.594;8.598;2022-12-08T09:53:54;21.50;37.30
16263;DHT22;8239;48.594;8.598;2022-12-08T09:56:24;21.70;37.00
16263;DHT22;8239;48.594;8.598;2022-12-08T09:58:56;22.00;38.10
16263;DHT22;8239;48.594;8.598;2022-12-08T10:01:27;22.20;38.10
16263;DHT22;8239;48.594;8.598;2022-12-08T10:03:54;22.50;36.50
16263;DHT22;8239;48.594;8.598;2022-12-08T10:06:28;22.50;35.50
16263;DHT22;8239;48.594;8.598;2022-12-08T10:09:10;22.60;36.10
16263;DHT22;8239;48.594;8.598;2022-12-08T10:11:45;22.70;35.40
16263;DHT22;8239;48.594;8.598;2022-12-08T10:14:21;22.90;36.70
16263;DHT22;8239;48.594;8.598;2022-12-08T10:16:54;23.30;36.50
16263;DHT22;8239;48.594;8.598;2022-12-08T10:19:26;23.60;36.60
16263;DHT22;8239;48.594;8.598;2022-12-08T10:21:53;23.80;36.00
16263;DHT22;8239;48.594;8.598;2022-12-08T10:24:25;23.80;36.00
16263;DHT22;8239;48.594;8.598;2022-12-08T10:26:55;23.50;34.00
16263;DHT22;8239;48.594;8.598;2022-12-08T10:29:22;23.40;35.50
16263;DHT22;8239;48.594;8.598;2022-12-08T10:31:49;23.50;35.90
16263;DHT22;8239;48.594;8.598;2022-12-08T10:34:18;23.40;33.60
16263;DHT22;8239;48.594;8.598;2022-12-08T10:36:49;23.40;34.80
16263;DHT22;8239;48.594;8.598;2022-12-08T10:39:40;23.30;34.40
16263;DHT22;8239;48.594;8.598;2022-12-08T10:42:16;23.30;33.50
16263;DHT22;8239;48.594;8.598;2022-12-08T10:44:57;23.30;34.70
16263;DHT22;8239;48.594;8.598;2022-12-08T10:47:26;23.40;34.00
16263;DHT22;8239;48.594;8.598;2022-12-08T10:50:15;23.30;33.60
16263;DHT22;8239;48.594;8.598;2022-12-08T10:52:44;23.10;33.40
16263;DHT22;8239;48.594;8.598;2022-12-08T10:55:18;22.90;31.90
16263;DHT22;8239;48.594;8.598;2022-12-08T10:57:45;22.60;32.80
16263;DHT22;8239;48.594;8.598;2022-12-08T11:00:15;22.40;31.80
16263;DHT22;8239;48.594;8.598;2022-12-08T11:02:57;22.40;33.90
16263;DHT22;8239;48.594;8.598;2022-12-08T11:05:29;22.40;32.60
16263;DHT22;8239;48.594;8.598;2022-12-08T11:07:57;22.40;33.30
16263;DHT22;8239;48.594;8.598;2022-12-08T11:10:35;22.70;33.70
16263;DHT22;8239;48.594;8.598;2022-12-08T11:13:04;22.80;32.30
16263;DHT22;8239;48.594;8.598;2022-12-08T11:15:34;22.60;31.70
16263;DHT22;8239;48.594;8.598;2022-12-08T11:18:17;21.20;31.00
16263;DHT22;8239;48.594;8.598;2022-12-08T11:20:47;19.10;31.60
16263;DHT22;8239;48.594;8.598;2022-12-08T11:23:23;16.70;33.90
16263;DHT22;8239;48.594;8.598;2022-12-08T11:25:56;14.30;36.10
16263;DHT22;8239;48.594;8.598;2022-12-08T11:28:24;12.10;39.30
16263;DHT22;8239;48.594;8.598;2022-12-08T11:30:59;10.20;42.80
16263;DHT22;8239;48.594;8.598;2022-12-08T11:33:29;8.60;46.80
16263;DHT22;8239;48.594;8.598;2022-12-08T11:35:59;7.50;50.60
16263;DHT22;8239;48.594;8.598;2022-12-08T11:38:29;6.70;52.60
16263;DHT22;8239;48.594;8.598;2022-12-08T11:41:03;6.10;54.50
16263;DHT22;8239;48.594;8.598;2022-12-08T11:43:40;5.60;56.80
16263;DHT22;8239;48.594;8.598;2022-12-08T11:46:13;5.30;60.10
16263;DHT22;8239;48.594;8.598;2022-12-08T11:48:46;5.30;62.10
16263;DHT22;8239;48.594;8.598;2022-12-08T11:51:18;5.50;63.00
16263;DHT22;8239;48.594;8.598;2022-12-08T11:53:53;6.40;65.70
16263;DHT22;8239;48.594;8.598;2022-12-08T11:56:28;7.60;65.20
16263;DHT22;8239;48.594;8.598;2022-12-08T11:59:00;8.50;61.00
16263;DHT22;8239;48.594;8.598;2022-12-08T12:01:28;9.00;58.40
16263;DHT22;8239;48.594;8.598;2022-12-08T12:04:04;9.30;56.10
16263;DHT22;8239;48.594;8.598;2022-12-08T12:07:04;9.10;54.10
16263;DHT22;8239;48.594;8.598;2022-12-08T12:09:43;8.60;54.20
16263;DHT22;8239;48.594;8.598;2022-12-08T12:12:24;8.00;55.10
16263;DHT22;8239;48.594;8.598;2022-12-08T12:18:00;7.00;57.60
16263;DHT22;8239;48.594;8.598;2022-12-08T12:20:31;6.60;58.60
16263;DHT22;8239;48.594;8.598;2022-12-08T12:23:03;6.20;58.90
16263;DHT22;8239;48.594;8.598;2022-12-08T12:25:31;6.00;60.40
16263;DHT22;8239;48.594;8.598;2022-12-08T12:28:03;5.80;61.70
16263;DHT22;8239;48.594;8.598;2022-12-08T12:30:48;5.60;62.80
16263;DHT22;8239;48.594;8.598;2022-12-08T12:33:17;5.50;64.30
16263;DHT22;8239;48.594;8.598;2022-12-08T12:35:45;5.40;64.60
16263;DHT22;8239;48.594;8.598;2022-12-08T12:38:20;5.10;63.80
16263;DHT22;8239;48.594;8.598;2022-12-08T12:41:07;4.70;65.20
16263;DHT22;8239;48.594;8.598;2022-12-08T12:43:37;4.40;66.90
16263;DHT22;8239;48.594;8.598;2022-12-08T12:46:52;4.20;67.50
16263;DHT22;8239;48.594;8.598;2022-12-08T12:49:51;4.00;67.80
16263;DHT22;8239;48.594;8.598;2022-12-08T12:52:43;3.80;69.00
16263;DHT22;8239;48.594;8.598;2022-12-08T12:58:48;3.50;70.20
16263;DHT22;8239;48.594;8.598;2022-12-08T13:01:48;3.40;72.20
16263;DHT22;8239;48.594;8.598;2022-12-08T13:04:16;3.40;72.50
16263;DHT22;8239;48.594;8.598;2022-12-08T13:06:47;3.30;73.50
16263;DHT22;8239;48.594;8.598;2022-12-08T13:09:21;3.20;74.10
16263;DHT22;8239;48.594;8.598;2022-12-08T13:11:51;3.10;75.00
16263;DHT22;8239;48.594;8.598;2022-12-08T13:14:34;3.00;75.70
16263;DHT22;8239;48.594;8.598;2022-12-08T13:17:06;2.80;76.10
16263;DHT22;8239;48.594;8.598;2022-12-08T13:19:35;2.60;77.00
16263;DHT22;8239;48.594;8.598;2022-12-08T13:25:45;2.30;80.60
16263;DHT22;8239;48.594;8.598;2022-12-08T13:28:17;2.10;82.60
16263;DHT22;8239;48.594;8.598;2022-12-08T13:30:47;2.10;83.80
16263;DHT22;8239;48.594;8.598;2022-12-08T13:33:17;2.00;85.10
16263;DHT22;8239;48.594;8.598;2022-12-08T13:35:52;2.00;86.10
16263;DHT22;8239;48.594;8.598;2022-12-08T13:38:25;1.90;87.40
16263;DHT22;8239;48.594;8.598;2022-12-08T13:40:55;1.90;88.80
16263;DHT22;8239;48.594;8.598;2022-12-08T13:43:32;1.90;90.00
16263;DHT22;8239;48.594;8.598;2022-12-08T13:46:04;1.90;90.60
16263;DHT22;8239;48.594;8.598;2022-12-08T13:48:49;1.80;91.10
16263;DHT22;8239;48.594;8.598;2022-12-08T13:51:18;1.80;91.80
16263;DHT22;8239;48.594;8.598;2022-12-08T13:53:57;1.80;92.70
16263;DHT22;8239;48.594;8.598;2022-12-08T13:56:26;1.90;93.10
16263;DHT22;8239;48.594;8.598;2022-12-08T13:59:07;1.90;93.50
16263;DHT22;8239;48.594;8.598;2022-12-08T14:01:41;1.90;94.10
16263;DHT22;8239;48.594;8.598;2022-12-08T14:04:16;1.80;94.70
16263;DHT22;8239;48.594;8.598;2022-12-08T14:06:58;1.90;95.20
16263;DHT22;8239;48.594;8.598;2022-12-08T14:09:34;1.90;95.70
16263;DHT22;8239;48.594;8.598;2022-12-08T14:12:06;1.90;95.90
16263;DHT22;8239;48.594;8.598;2022-12-08T14:14:38;1.90;96.00
16263;DHT22;8239;48.594;8.598;2022-12-08T14:17:11;1.90;96.50
16263;DHT22;8239;48.594;8.598;2022-12-08T14:19:41;1.90;97.10
16263;DHT22;8239;48.594;8.598;2022-12-08T14:22:10;1.90;97.50
16263;DHT22;8239;48.594;8.598;2022-12-08T14:24:53;1.90;97.70
16263;DHT22;8239;48.594;8.598;2022-12-08T14:27:21;1.80;98.20
16263;DHT22;8239;48.594;8.598;2022-12-08T14:29:50;1.80;98.00
16263;DHT22;8239;48.594;8.598;2022-12-08T14:32:22;1.80;98.20
16263;DHT22;8239;48.594;8.598;2022-12-08T14:34:52;1.80;98.40
16263;DHT22;8239;48.594;8.598;2022-12-08T14:37:20;1.80;98.90
16263;DHT22;8239;48.594;8.598;2022-12-08T14:39:48;1.70;99.10
16263;DHT22;8239;48.594;8.598;2022-12-08T14:42:21;1.70;99.20
16263;DHT22;8239;48.594;8.598;2022-12-08T14:44:55;1.70;99.70
16263;DHT22;8239;48.594;8.598;2022-12-08T14:47:29;1.60;99.70
16263;DHT22;8239;48.594;8.598;2022-12-08T14:49:56;1.60;99.90
16263;DHT22;8239;48.594;8.598;2022-12-08T14:52:24;1.70;99.90
16263;DHT22;8239;48.594;8.598;2022-12-08T14:54:52;1.70;99.90
16263;DHT22;8239;48.594;8.598;2022-12-08T14:57:20;1.70;99.90
16263;DHT22;8239;48.594;8.598;2022-12-08T14:59:47;1.70;99.90
16263;DHT22;8239;48.594;8.598;2022-12-08T15:02:25;1.70;99.90
16263;DHT22;8239;48.594;8.598;2022-12-08T15:05:02;1.60;99.90
16263;DHT22;8239;48.594;8.598;2022-12-08T15:07:33;1.50;99.90
16263;DHT22;8239;48.594;8.598;2022-12-08T15:10:23;1.50;99.90
16263;DHT22;8239;48.594;8.598;2022-12-08T15:12:59;1.40;99.90
16263;DHT22;8239;48.594;8.598;2022-12-08T15:15:27;1.30;99.90
16263;DHT22;8239;48.594;8.598;2022-12-08T15:18:01;1.30;99.90
16263;DHT22;8239;48.594;8.598;2022-12-08T15:20:38;1.30;99.90
16263;DHT22;8239;48.594;8.598;2022-12-08T15:23:18;1.20;99.90
16263;DHT22;8239;48.594;8.598;2022-12-08T15:25:45;1.20;99.90
16263;DHT22;8239;48.594;8.598;2022-12-08T15:28:14;1.20;99.90
16263;DHT22;8239;48.594;8.598;2022-12-08T15:30:41;1.20;99.90
16263;DHT22;8239;48.594;8.598;2022-12-08T15:33:08;1.20;99.90
16263;DHT22;8239;48.594;8.598;2022-12-08T15:35:37;1.10;99.90
16263;DHT22;8239;48.594;8.598;2022-12-08T15:38:05;1.00;99.90
16263;DHT22;8239;48.594;8.598;2022-12-08T15:40:32;1.00;99.90
16263;DHT22;8239;48.594;8.598;2022-12-08T15:42:59;0.90;99.90
16263;DHT22;8239;48.594;8.598;2022-12-08T15:45:29;0.90;99.90
16263;DHT22;8239;48.594;8.598;2022-12-08T15:47:57;0.80;99.90
16263;DHT22;8239;48.594;8.598;2022-12-08T15:50:24;0.70;99.90
16263;DHT22;8239;48.594;8.598;2022-12-08T15:52:52;0.70;99.90
16263;DHT22;8239;48.594;8.598;2022-12-08T15:55:20;0.60;99.90
16263;DHT22;8239;48.594;8.598;2022-12-08T15:57:50;0.60;99.90
16263;DHT22;8239;48.594;8.598;2022-12-08T16:00:25;0.60;99.90
16263;DHT22;8239;48.594;8.598;2022-12-08T16:02:53;0.50;99.90
16263;DHT22;8239;48.594;8.598;2022-12-08T16:05:20;0.50;99.90
16263;DHT22;8239;48.594;8.598;2022-12-08T16:07:47;0.50;99.90
16263;DHT22;8239;48.594;8.598;2022-12-08T16:10:19;0.40;99.90
16263;DHT22;8239;48.594;8.598;2022-12-08T16:12:46;0.40;99.90
16263;DHT22;8239;48.594;8.598;2022-12-08T16:15:33;0.30;99.90
16263;DHT22;8239;48.594;8.598;2022-12-08T16:18:01;0.30;99.90
16263;DHT22;8239;48.594;8.598;2022-12-08T16:20:28;0.20;99.90
16263;DHT22;8239;48.594;8.598;2022-12-08T16:22:55;0.20;99.90
16263;DHT22;8239;48.594;8.598;2022-12-08T16:25:24;0.20;99.90
16263;DHT22;8239;48.594;8.598;2022-12-08T16:27:53;0.20;99.90
16263;DHT22;8239;48.594;8.598;2022-12-08T16:30:21;0.20;99.90
16263;DHT22;8239;48.594;8.598;2022-12-08T16:32:49;0.10;99.90
16263;DHT22;8239;48.594;8.598;2022-12-08T16:35:16;0.10;99.90
16263;DHT22;8239;48.594;8.598;2022-12-08T16:37:43;0.10;99.90
16263;DHT22;8239;48.594;8.598;2022-12-08T16:40:11;0.00;99.90
16263;DHT22;8239;48.594;8.598;2022-12-08T16:42:40;0.00;99.90
16263;DHT22;8239;48.594;8.598;2022-12-08T16:45:10;-0.10;99.90
16263;DHT22;8239;48.594;8.598;2022-12-08T16:47:40;0.00;99.90
16263;DHT22;8239;48.594;8.598;2022-12-08T16:50:10;-0.10;99.90
16263;DHT22;8239;48.594;8.598;2022-12-08T16:52:37;-0.10;99.90
16263;DHT22;8239;48.594;8.598;2022-12-08T16:55:07;-0.20;99.90
16263;DHT22;8239;48.594;8.598;2022-12-08T16:57:34;-0.20;99.90
16263;DHT22;8239;48.594;8.598;2022-12-08T17:00:05;-0.20;99.90
16263;DHT22;8239;48.594;8.598;2022-12-08T17:02:34;-0.30;99.90
16263;DHT22;8239;48.594;8.598;2022-12-08T17:05:01;-0.30;99.90
16263;DHT22;8239;48.594;8.598;2022-12-08T17:07:29;-0.30;99.90
16263;DHT22;8239;48.594;8.598;2022-12-08T17:09:56;-0.30;99.90
16263;DHT22;8239;48.594;8.598;2022-12-08T17:12:23;-0.30;99.90
16263;DHT22;8239;48.594;8.598;2022-12-08T17:14:50;-0.40;99.90
16263;DHT22;8239;48.594;8.598;2022-12-08T17:17:19;-0.30;99.90
16263;DHT22;8239;48.594;8.598;2022-12-08T17:19:46;-0.40;99.90
16263;DHT22;8239;48.594;8.598;2022-12-08T17:22:13;-0.40;99.90
16263;DHT22;8239;48.594;8.598;2022-12-08T17:24:40;-0.40;99.90
16263;DHT22;8239;48.594;8.598;2022-12-08T17:27:07;-0.40;99.90
16263;DHT22;8239;48.594;8.598;2022-12-08T17:29:34;-0.40;99.90
16263;DHT22;8239;48.594;8.598;2022-12-08T17:32:02;-0.40;99.90
16263;DHT22;8239;48.594;8.598;2022-12-08T17:34:32;-0.50;99.90
16263;DHT22;8239;48.594;8.598;2022-12-08T17:36:59;-0.50;99.90
16263;DHT22;8239;48.594;8.598;2022-12-08T17:39:26;-0.50;99.90
16263;DHT22;8239;48.594;8.598;2022-12-08T17:41:53;-0.50;99.90
16263;DHT22;8239;48.594;8.598;2022-12-08T17:44:20;-0.50;99.90
16263;DHT22;8239;48.594;8.598;2022-12-08T17:46:50;-0.50;99.90
16263;DHT22;8239;48.594;8.598;2022-12-08T17:49:19;-0.60;99.90
16263;DHT22;8239;48.594;8.598;2022-12-08T17:51:51;-0.60;99.90
16263;DHT22;8239;48.594;8.598;2022-12-08T17:54:19;-0.60;99.90
16263;DHT22;8239;48.594;8.598;2022-12-08T17:56:46;-0.70;99.90
16263;DHT22;8239;48.594;8.598;2022-12-08T17:59:14;-0.70;99.90
16263;DHT22;8239;48.594;8.598;2022-12-08T18:01:41;-0.70;99.90
16263;DHT22;8239;48.594;8.598;2022-12-08T18:04:09;-0.70;99.90
16263;DHT22;8239;48.594;8.598;2022-12-08T18:06:37;-0.80;99.90
16263;DHT22;8239;48.594;8.598;2022-12-08T18:09:07;-0.80;99.90
16263;DHT22;8239;48.594;8.598;2022-12-08T18:11:34;-0.90;99.90
16263;DHT22;8239;48.594;8.598;2022-12-08T18:14:03;-0.90;99.90
16263;DHT22;8239;48.594;8.598;2022-12-08T18:16:35;-1.00;99.90
16263;DHT22;8239;48.594;8.598;2022-12-08T18:19:03;-1.10;99.90
16263;DHT22;8239;48.594;8.598;2022-12-08T18:21:30;-1.30;99.90